Hlavní strana
METAR-TAF:

METAR-TAF

Letiště :

Ottawa, Kansas, Spojené státy americké

zeměpisná šířka: 38-32-20N, zeměpisná délka: 095-15-10W, výška: 295 m

Aktuální stav počasí

Zpráva byla vytvořena před 22 minutami, v 10:15 UTC
Severozápadní vítr 12 kt s nárazy do 18 kt
Teplota 0°C
Vlhkost vzduchu 100%
Tlak 1014 hPa
Viditelnost: 8.0 km
Zataženo ve výšce 900 ft
slabé sněžení

METAR: KOWI 241015Z AUTO 32012G18KT 5SM -SN OVC009 00/00 A2993 RMK AO2

Čas: 04:37 (10:37 UTC)


TAF: chybějící

Stav a předpovědi počasí z více než 4 000 letišť (zprávy METAR a TAF).

Červené a žluté tečky na mapě představují dostupné meteorologické stanice.

Když kurzor umístíte na tečku, zobrazí se název stanice.

Pak kliknutím zobrazíte stav a předpověď počasí.

Chcete-li změnit mapu, kliknutím na zelené tlačítko se znaménkem +mapu přiblížíte, kliknutím na zelené tlačítko se znaménkem – mapu oddálíte a kliknutím na zelené šipky přejdete na sousední mapy.


METAR-TAF: